Meath Environmental Platform

Observations for Trim Market St

Time AQI Temp °C Hum % Pres Pa CO μg/m³ H₂S μg/m³ NO μg/m³ NO₂ μg/m³ O₃ μg/m³ SO₂ μg/m³ PM1 μg/m³ PM2.5 μg/m³ PM10 μg/m³
Thursday 9 July 2026
15:53 1 41.6 25 67,228 0 12.37 0 6.9 22.28 7.94 0 3.52 3.87
15:52 1 41.7 25 67,230 0 4.6 0 7.38 8.47 7.57 0.71 4.07 4.48
15:48 1 42 25 67,239 0 8.58 0 12.23 1.21 6.38 4.28 7.94 8.42
15:47 1 42.1 25 67,212 0 0 0 25.68 2.92 4.37 0.71 3.52 3.88
15:44 1 42.1 25 67,224 0 0.21 0 2.98 32.64 7.9 0 2.97 3.27
15:41 1 42.2 25 67,243 0 0 0 10.47 18.94 6.68 0.71 3.53 3.88
15:39 1 42.2 25 67,249 0 0 0 14.49 0.14 5.44 0 3.54 3.89
15:34 1 42.2 24 67,226 0 5.7 0 9.91 30.28 7.16 0.71 3.55 3.9
15:33 1 42.3 24 67,226 0 0 0 0.41 35.83 7.9 0.71 4.11 4.52
15:32 1 42.3 24 67,257 0 5.98 0 2.41 24.38 8.24 1.43 4.11 4.52
15:29 1 42.3 24 67,280 0 0 0 0 0 10.19 0.71 3.55 3.91
15:28 1 42.3 25 67,294 0 0 0 6.17 4.93 5.91 0.71 3.54 3.9
15:27 1 42.2 25 67,276 0 7.52 0 25.37 0 3.31 0.71 3.53 3.88
15:26 1 42.2 25 67,251 0 0 0 20.75 9.27 5.84 0 2.97 3.27
15:25 1 42.1 25 67,218 0 0 0 0 29.78 9.54 0 2.97 3.26
15:22 1 42 26 67,214 0 3.85 0 5.25 21.56 7.25 0 2.95 3.25
15:21 1 41.9 26 67,200 0 7.97 0 6.26 33.02 7.37 0.71 3.49 3.84
15:13 1 42.2 25 67,255 0 0 0 0 41.3 8.75 0.71 3.54 3.9
15:12 1 42.3 25 67,292 0 0 0 4.46 29.13 7.69 0.71 3.54 3.89
15:10 1 42.5 24 67,316 0 0 0 0 23.3 9.27 0 3.02 3.32